Time;durP1;ratioP1;P1;durP2;ratioP2;P2;SDS_P1;SDS_P2;PMS_P1;PMS_P2;Temp;Humidity;BMP_temperature;BMP_pressure;BME280_temperature;BME280_humidity;BME280_pressure;Samples;Min_cycle;Max_cycle;Signal;HPM_P1;HPM_P2
2020/12/22 00:01:44;;;;;;;7.22;3.00;;;19.80;71.10;;;;;;5050042;28;20143;-40
2020/12/22 00:04:10;;;;;;;4.45;2.40;;;19.80;71.00;;;;;;5045482;28;20043;-40
2020/12/22 00:06:35;;;;;;;2.78;2.13;;;19.80;71.10;;;;;;5045855;28;20049;-40
2020/12/22 00:09:01;;;;;;;4.50;2.38;;;19.80;71.10;;;;;;5044849;28;20041;-38
2020/12/22 00:11:27;;;;;;;4.15;2.40;;;19.80;71.10;;;;;;5042408;28;20053;-39
2020/12/22 00:13:52;;;;;;;3.13;2.28;;;19.80;71.10;;;;;;5046962;28;20103;-41
2020/12/22 00:16:18;;;;;;;3.15;2.63;;;19.80;71.00;;;;;;5054626;28;20044;-41
2020/12/22 00:18:44;;;;;;;3.65;2.10;;;19.70;71.10;;;;;;5041918;28;20045;-42
2020/12/22 00:21:09;;;;;;;2.55;2.05;;;19.70;71.10;;;;;;5047853;28;20048;-41
2020/12/22 00:23:35;;;;;;;3.47;2.60;;;19.80;71.20;;;;;;5056035;28;20045;-41
2020/12/22 00:26:00;;;;;;;4.82;2.47;;;19.70;71.90;;;;;;5052125;28;20033;-41
2020/12/22 00:28:26;;;;;;;4.30;2.38;;;19.70;71.00;;;;;;5049430;28;20045;-41
2020/12/22 00:30:51;;;;;;;2.28;2.08;;;19.70;70.90;;;;;;5046974;28;20052;-40
2020/12/22 00:33:17;;;;;;;3.35;2.00;;;19.80;70.90;;;;;;5047968;28;20132;-42
2020/12/22 00:35:43;;;;;;;4.05;2.72;;;19.70;70.80;;;;;;5049568;28;20448;-41
2020/12/22 00:38:08;;;;;;;3.45;2.03;;;19.80;70.90;;;;;;5046553;28;20065;-42
2020/12/22 00:40:34;;;;;;;3.13;2.08;;;19.70;70.90;;;;;;5044631;28;20045;-41
2020/12/22 00:43:03;;;;;;;2.08;1.83;;;19.70;70.90;;;;;;5045030;28;20053;-47
2020/12/22 00:45:29;;;;;;;2.03;1.83;;;19.70;70.90;;;;;;5046399;28;20048;-41
2020/12/22 00:47:55;;;;;;;2.67;2.10;;;19.70;71.00;;;;;;5055344;28;20049;-41
2020/12/22 00:50:20;;;;;;;4.60;2.50;;;19.70;71.00;;;;;;5061270;28;20044;-41
2020/12/22 00:52:46;;;;;;;3.08;2.13;;;19.70;71.80;;;;;;5057495;28;20040;-41
2020/12/22 00:55:11;;;;;;;2.55;1.90;;;19.70;71.00;;;;;;5048427;28;20065;-41
2020/12/22 00:57:37;;;;;;;2.92;2.28;;;19.70;70.90;;;;;;5048384;28;20052;-41
2020/12/22 01:00:05;;;;;;;3.33;1.73;;;19.70;71.60;;;;;;5041666;28;20053;-42
2020/12/22 01:02:31;;;;;;;3.00;1.70;;;19.70;70.80;;;;;;5042646;28;20052;-41
2020/12/22 01:04:56;;;;;;;1.98;1.65;;;19.70;70.70;;;;;;5046889;28;20061;-41
2020/12/22 01:07:22;;;;;;;2.10;1.80;;;19.70;70.70;;;;;;5045892;28;20114;-41
2020/12/22 01:09:47;;;;;;;1.83;1.65;;;19.70;70.70;;;;;;5042785;28;20055;-40
2020/12/22 01:12:13;;;;;;;2.75;1.98;;;19.70;70.70;;;;;;5045450;28;20492;-41
2020/12/22 01:14:39;;;;;;;3.47;1.80;;;19.70;70.80;;;;;;5044554;28;20138;-41
2020/12/22 01:17:04;;;;;;;2.85;1.92;;;19.60;70.70;;;;;;5041770;28;20048;-41
2020/12/22 01:19:30;;;;;;;2.80;1.90;;;19.60;70.80;;;;;;5055050;28;20063;-41
2020/12/22 01:21:55;;;;;;;1.92;1.67;;;19.60;70.80;;;;;;5045750;28;20049;-42
2020/12/22 01:24:21;;;;;;;1.85;1.40;;;19.60;70.90;;;;;;5051855;28;20041;-41
2020/12/22 01:26:48;;;;;;;2.28;1.77;;;19.60;70.90;;;;;;5055502;28;20524;-40
2020/12/22 01:29:14;;;;;;;2.33;2.13;;;19.70;71.00;;;;;;5047335;28;20087;-40
2020/12/22 01:31:39;;;;;;;3.20;1.83;;;19.70;71.00;;;;;;5050971;28;20057;-41
2020/12/22 01:34:05;;;;;;;4.15;1.90;;;19.60;70.90;;;;;;5050497;28;20029;-41
2020/12/22 01:36:31;;;;;;;5.95;1.40;;;19.60;71.00;;;;;;5048184;28;20056;-41
2020/12/22 01:38:56;;;;;;;2.15;1.60;;;19.60;71.00;;;;;;5045996;28;20505;-41
2020/12/22 01:41:22;;;;;;;2.20;1.77;;;19.60;70.90;;;;;;5047418;28;20056;-40
2020/12/22 07:48:53;;;;;;;0.52;0.45;;;18.60;74.80;;;;;;5066766;27;20373;-37
2020/12/22 07:51:19;;;;;;;0.85;0.35;;;18.60;75.20;;;;;;5061182;28;20058;-38
2020/12/22 07:53:44;;;;;;;0.30;0.30;;;18.70;75.70;;;;;;5074108;28;20052;-38
2020/12/22 07:56:10;;;;;;;3.50;0.22;;;18.70;76.30;;;;;;5084129;28;20094;-38
2020/12/22 07:58:36;;;;;;;4.57;0.20;;;18.70;77.10;;;;;;5068971;28;20111;-38
2020/12/22 08:01:01;;;;;;;0.68;0.30;;;18.80;76.90;;;;;;5082399;28;20144;-36
2020/12/22 08:03:28;;;;;;;1.75;0.30;;;18.80;77.00;;;;;;5083237;28;20040;-36
2020/12/22 08:06:00;;;;;;;1.85;0.40;;;18.90;77.20;;;;;;5078522;28;20040;-36
2020/12/22 08:08:26;;;;;;;2.22;0.30;;;18.90;77.10;;;;;;5059263;28;20197;-36
2020/12/22 08:10:51;;;;;;;0.40;0.22;;;18.90;77.30;;;;;;5052487;28;20576;-36
2020/12/22 08:13:17;;;;;;;2.50;0.30;;;19.00;78.50;;;;;;5051895;28;20048;-37
2020/12/22 08:15:42;;;;;;;2.28;0.25;;;19.00;79.50;;;;;;5052464;28;20051;-36
2020/12/22 08:18:08;;;;;;;1.13;0.30;;;19.00;79.40;;;;;;5082946;28;20499;-37
2020/12/22 08:20:34;;;;;;;3.30;0.50;;;19.00;79.80;;;;;;5097284;28;20445;-37
2020/12/22 08:23:02;;;;;;;2.05;0.43;;;19.10;81.00;;;;;;5100299;28;20048;-36
2020/12/22 08:25:27;;;;;;;2.30;0.32;;;19.10;81.10;;;;;;5086421;28;20032;-37
2020/12/22 08:27:53;;;;;;;0.38;0.20;;;19.10;81.10;;;;;;5065647;28;20442;-37
2020/12/22 08:30:19;;;;;;;3.83;0.45;;;19.10;81.10;;;;;;5084180;28;20045;-37
2020/12/22 08:32:45;;;;;;;0.77;0.50;;;19.00;81.00;;;;;;5081522;28;20082;-37
2020/12/22 08:35:12;;;;;;;1.73;0.35;;;19.00;80.10;;;;;;5081346;28;20504;-37
2020/12/22 08:37:37;;;;;;;1.30;0.35;;;19.00;79.80;;;;;;5083144;28;20550;-37
2020/12/22 08:40:04;;;;;;;1.17;0.32;;;18.90;79.70;;;;;;5079954;28;20064;-36
2020/12/22 08:42:30;;;;;;;3.60;0.40;;;18.90;79.30;;;;;;5079022;28;20040;-40
2020/12/22 08:44:55;;;;;;;0.35;0.30;;;18.90;79.00;;;;;;5079488;28;20052;-37
2020/12/22 08:47:21;;;;;;;1.05;0.30;;;18.90;78.70;;;;;;5079539;28;20044;-37
2020/12/22 08:49:47;;;;;;;1.92;0.30;;;18.90;78.40;;;;;;5081791;28;20122;-37
2020/12/22 08:52:16;;;;;;;1.23;0.30;;;18.90;78.20;;;;;;5079709;28;20112;-37
2020/12/22 08:54:46;;;;;;;0.32;0.10;;;18.90;78.00;;;;;;5074539;28;20113;-37
2020/12/22 08:57:16;;;;;;;0.77;0.13;;;18.90;77.70;;;;;;5079955;28;20036;-37
2020/12/22 08:59:42;;;;;;;0.95;0.20;;;18.90;77.50;;;;;;5070143;28;20055;-37
2020/12/22 09:02:31;;;;;;;0.43;0.10;;;18.90;77.30;;;;;;5070432;28;20041;-37
2020/12/22 09:04:57;;;;;;;0.35;0.20;;;18.90;77.20;;;;;;5069602;28;20036;-38
2020/12/22 09:07:24;;;;;;;1.38;0.35;;;19.00;77.90;;;;;;5068035;28;20068;-37
2020/12/22 09:09:49;;;;;;;0.55;0.20;;;19.00;76.90;;;;;;5057098;28;20094;-37
2020/12/22 09:12:15;;;;;;;0.20;0.20;;;19.00;77.50;;;;;;5054700;28;20070;-37
2020/12/22 09:14:45;;;;;;;0.30;0.20;;;19.10;76.50;;;;;;5055068;28;20051;-37
2020/12/22 09:17:12;;;;;;;0.65;0.20;;;19.00;76.40;;;;;;5069340;28;20048;-37
2020/12/22 09:19:50;;;;;;;0.47;0.20;;;19.00;76.30;;;;;;5053340;28;20123;-38
2020/12/22 09:22:16;;;;;;;0.40;0.30;;;19.10;76.40;;;;;;5054442;28;20095;-37
2020/12/22 09:24:42;;;;;;;1.60;0.30;;;19.00;76.00;;;;;;5054788;28;20055;-43
2020/12/22 09:27:08;;;;;;;0.50;0.20;;;19.10;75.90;;;;;;5056916;28;20033;-38
2020/12/22 09:29:38;;;;;;;0.40;0.20;;;19.10;75.70;;;;;;5056537;28;20048;-37
2020/12/22 09:32:05;;;;;;;0.52;0.52;;;19.10;75.40;;;;;;5067823;28;20040;-37
2020/12/22 09:34:31;;;;;;;1.42;0.32;;;19.10;75.40;;;;;;5058879;28;20045;-36
2020/12/22 09:36:59;;;;;;;1.10;0.30;;;19.00;75.40;;;;;;5055309;28;20055;-37
2020/12/22 09:39:25;;;;;;;0.63;0.20;;;19.10;75.40;;;;;;5062905;28;20388;-36
2020/12/22 09:41:51;;;;;;;3.47;0.45;;;19.10;75.30;;;;;;5064885;28;20140;-37
2020/12/22 09:44:16;;;;;;;0.63;0.20;;;19.10;75.20;;;;;;5058725;28;20411;-39
2020/12/22 09:46:42;;;;;;;4.63;0.38;;;19.20;75.30;;;;;;5064453;28;20067;-37
2020/12/22 09:49:08;;;;;;;5.30;0.75;;;19.20;75.20;;;;;;5053331;28;20056;-37
2020/12/22 09:51:33;;;;;;;5.03;0.30;;;19.20;75.30;;;;;;5058116;28;20053;-37
2020/12/22 09:53:59;;;;;;;0.50;0.38;;;19.30;74.90;;;;;;5053590;28;20041;-37
2020/12/22 09:56:24;;;;;;;1.35;0.47;;;19.30;74.90;;;;;;5053851;28;20131;-37
2020/12/22 09:58:50;;;;;;;4.10;0.20;;;19.40;75.00;;;;;;5052078;28;20037;-36
2020/12/22 10:01:25;;;;;;;7.07;0.90;;;19.40;74.60;;;;;;5059246;28;20063;-36
2020/12/22 10:03:51;;;;;;;0.85;0.35;;;19.40;74.70;;;;;;5056604;28;20052;-36
2020/12/22 10:06:18;;;;;;;3.15;0.40;;;19.40;75.40;;;;;;5064113;28;20071;-36
2020/12/22 10:08:43;;;;;;;1.45;0.20;;;19.40;74.40;;;;;;5053013;28;20050;-37
2020/12/22 10:11:09;;;;;;;1.80;0.30;;;19.50;74.50;;;;;;5052693;28;20093;-39
2020/12/22 10:13:35;;;;;;;0.82;0.20;;;19.50;74.30;;;;;;5061976;28;20040;-36
2020/12/22 10:16:05;;;;;;;0.55;0.17;;;19.50;74.20;;;;;;5073840;28;20071;-38
2020/12/22 10:18:30;;;;;;;0.47;0.22;;;19.50;74.10;;;;;;5084327;28;20413;-38
2020/12/22 10:20:56;;;;;;;3.80;0.30;;;19.50;74.00;;;;;;5068207;28;20178;-38
2020/12/22 10:23:21;;;;;;;0.20;0.20;;;19.50;74.00;;;;;;5066694;28;20408;-39
2020/12/22 10:25:47;;;;;;;0.47;0.22;;;19.60;74.00;;;;;;5068638;28;20052;-38
2020/12/22 10:28:12;;;;;;;2.05;0.20;;;19.50;73.80;;;;;;5067625;28;20119;-38
2020/12/22 10:30:38;;;;;;;1.75;0.20;;;19.60;73.90;;;;;;5067175;28;20059;-38
2020/12/22 10:33:04;;;;;;;0.52;0.20;;;19.60;73.80;;;;;;5065386;28;20045;-37
2020/12/22 10:35:29;;;;;;;1.80;0.20;;;19.60;74.10;;;;;;5065579;28;20060;-37
2020/12/22 10:37:55;;;;;;;0.45;0.28;;;19.50;74.10;;;;;;5066552;28;20040;-40
2020/12/22 10:40:20;;;;;;;0.30;0.20;;;19.50;74.20;;;;;;5065588;28;20496;-38
2020/12/22 10:42:46;;;;;;;0.20;0.15;;;19.50;74.00;;;;;;5065819;28;20072;-37
2020/12/22 10:45:11;;;;;;;0.43;0.20;;;19.60;74.90;;;;;;5064527;28;20040;-38
2020/12/22 10:47:37;;;;;;;1.38;0.20;;;19.60;73.50;;;;;;5063043;28;20055;-37
2020/12/22 10:50:03;;;;;;;1.75;0.30;;;19.60;73.40;;;;;;5064429;28;20048;-38
2020/12/22 10:52:28;;;;;;;0.50;0.20;;;19.60;73.40;;;;;;5069860;28;20051;-38
2020/12/22 10:54:55;;;;;;;0.38;0.20;;;19.60;73.50;;;;;;5066342;28;20032;-65
2020/12/22 10:57:20;;;;;;;0.32;0.22;;;19.70;73.30;;;;;;5063969;28;20464;-42
2020/12/22 10:59:46;;;;;;;0.25;0.10;;;19.70;73.30;;;;;;5068032;28;20029;-37
2020/12/22 11:02:11;;;;;;;0.85;0.30;;;19.70;73.20;;;;;;5066102;28;20035;-38
2020/12/22 11:04:37;;;;;;;0.43;0.20;;;19.70;73.20;;;;;;5068949;28;20029;-36
2020/12/22 11:07:11;;;;;;;0.63;0.10;;;19.60;73.50;;;;;;4851291;28;10001243;-38
2020/12/22 11:09:37;;;;;;;2.55;0.20;;;19.60;73.10;;;;;;5058229;28;20260;-60
2020/12/22 11:12:03;;;;;;;2.00;0.20;;;19.60;73.10;;;;;;5058976;28;20499;-38
2020/12/22 11:14:29;;;;;;;0.20;0.10;;;19.60;72.90;;;;;;5080123;28;20487;-37
2020/12/22 11:16:55;;;;;;;3.20;0.20;;;19.60;72.70;;;;;;5063005;28;20020;-38
2020/12/22 11:19:20;;;;;;;0.57;0.20;;;19.60;72.90;;;;;;5063323;28;20028;-38
2020/12/22 11:21:46;;;;;;;0.28;0.15;;;19.60;72.70;;;;;;5061251;28;20059;-38
2020/12/22 11:24:11;;;;;;;1.40;0.32;;;19.60;72.90;;;;;;5065086;28;20039;-38
2020/12/22 11:26:37;;;;;;;0.70;0.50;;;19.60;73.30;;;;;;5061654;28;20087;-36
2020/12/22 11:29:04;;;;;;;4.53;0.40;;;19.50;73.50;;;;;;5064203;28;20475;-40
2020/12/22 11:31:29;;;;;;;3.72;0.70;;;19.50;74.10;;;;;;5062270;28;20027;-40
2020/12/22 11:33:55;;;;;;;3.85;0.98;;;19.50;74.60;;;;;;5062494;28;20040;-46
2020/12/22 11:36:21;;;;;;;5.68;0.40;;;19.50;75.30;;;;;;5079548;28;20029;-39
2020/12/22 11:38:47;;;;;;;1.77;0.30;;;19.60;75.80;;;;;;5063376;28;20108;-36
2020/12/22 11:41:13;;;;;;;3.67;0.63;;;19.60;77.20;;;;;;5079145;28;20082;-36
2020/12/22 11:43:38;;;;;;;2.55;0.40;;;19.60;77.20;;;;;;5064992;28;20031;-37
2020/12/22 11:46:05;;;;;;;3.83;0.52;;;19.60;77.10;;;;;;5080940;28;20040;-36
2020/12/22 11:48:35;;;;;;;2.20;2.00;;;19.60;77.30;;;;;;5063722;28;20056;-37
2020/12/22 11:51:00;;;;;;;2.88;1.60;;;19.60;77.10;;;;;;5065464;28;20033;-38
2020/12/22 11:53:26;;;;;;;3.25;1.90;;;19.60;76.90;;;;;;5064626;28;20025;-37
2020/12/22 11:55:52;;;;;;;1.55;1.45;;;19.60;76.70;;;;;;5064301;28;20028;-38
2020/12/22 11:58:18;;;;;;;3.50;3.20;;;19.60;76.50;;;;;;5060595;28;20036;-39
2020/12/22 12:00:43;;;;;;;4.25;3.85;;;19.60;76.30;;;;;;5064049;28;20027;-38
2020/12/22 12:03:09;;;;;;;1.77;1.25;;;19.60;75.80;;;;;;5064111;28;20073;-36
2020/12/22 12:05:35;;;;;;;2.58;2.20;;;19.60;74.60;;;;;;5064037;28;20063;-38
2020/12/22 12:08:01;;;;;;;4.60;2.13;;;19.60;76.10;;;;;;5079844;28;20077;-38
2020/12/22 12:10:26;;;;;;;4.18;2.15;;;19.60;75.80;;;;;;5063261;28;20025;-39
2020/12/22 12:12:52;;;;;;;2.88;2.10;;;19.60;76.20;;;;;;5081419;28;20032;-40
2020/12/22 12:15:18;;;;;;;2.20;2.00;;;19.60;76.10;;;;;;5077634;28;20028;-37
2020/12/22 12:17:44;;;;;;;2.45;2.17;;;19.60;76.20;;;;;;5063280;28;20036;-37
2020/12/22 12:20:10;;;;;;;3.45;1.90;;;19.60;76.10;;;;;;5064160;28;20029;-42
2020/12/22 12:22:35;;;;;;;4.10;1.90;;;19.60;76.10;;;;;;5065529;28;20032;-38
2020/12/22 12:25:01;;;;;;;1.80;1.70;;;19.60;76.10;;;;;;5063187;28;20028;-38
2020/12/22 12:27:27;;;;;;;4.50;2.03;;;19.60;76.10;;;;;;5042356;28;20047;-37
2020/12/22 12:29:53;;;;;;;4.70;1.92;;;19.60;75.70;;;;;;5063300;28;20028;-38
2020/12/22 12:32:19;;;;;;;2.00;1.77;;;19.60;75.90;;;;;;5061117;28;20119;-38
2020/12/22 12:34:44;;;;;;;1.83;1.38;;;19.60;75.70;;;;;;5066761;28;20050;-40
2020/12/22 12:37:10;;;;;;;2.85;1.60;;;19.70;75.20;;;;;;5067961;28;20471;-42
2020/12/22 12:39:39;;;;;;;2.00;1.40;;;19.70;75.10;;;;;;5067882;28;20090;-45
2020/12/22 12:42:05;;;;;;;2.67;1.65;;;19.80;74.90;;;;;;5064326;28;20512;-40
2020/12/22 12:44:31;;;;;;;5.22;1.48;;;19.80;74.60;;;;;;5064284;28;20028;-42
2020/12/22 12:46:56;;;;;;;2.47;1.23;;;19.80;74.60;;;;;;5067911;28;20052;-42
2020/12/22 12:49:22;;;;;;;5.10;1.40;;;19.70;74.60;;;;;;5050461;28;20036;-43
2020/12/22 12:51:48;;;;;;;4.75;1.33;;;19.70;74.50;;;;;;5066545;28;20571;-43
2020/12/22 12:54:14;;;;;;;2.58;1.20;;;19.70;74.40;;;;;;5085548;28;20028;-42
2020/12/22 12:56:40;;;;;;;1.17;1.08;;;19.70;74.40;;;;;;5088338;28;20491;-41
2020/12/22 12:59:06;;;;;;;1.40;1.30;;;19.70;74.50;;;;;;5078267;28;20027;-42
2020/12/22 13:01:38;;;;;;;2.40;1.40;;;19.70;74.40;;;;;;5070711;28;20392;-42
2020/12/22 13:04:04;;;;;;;3.15;1.50;;;19.70;74.40;;;;;;5086534;28;20048;-42
2020/12/22 13:06:30;;;;;;;2.47;1.10;;;19.60;74.40;;;;;;5071295;28;20456;-44
2020/12/22 13:08:55;;;;;;;3.67;0.90;;;19.60;74.50;;;;;;5069776;28;20049;-42
2020/12/22 13:11:22;;;;;;;1.38;0.73;;;19.60;74.50;;;;;;5061042;28;21400;-41
2020/12/22 13:13:47;;;;;;;1.55;1.15;;;19.60;74.60;;;;;;5069544;28;20028;-42
2020/12/22 13:16:13;;;;;;;1.20;1.10;;;19.60;74.70;;;;;;5071060;28;20025;-41
2020/12/22 13:18:39;;;;;;;4.82;1.33;;;19.60;74.60;;;;;;5069665;28;20035;-47
2020/12/22 13:21:05;;;;;;;3.58;1.42;;;19.60;74.60;;;;;;5085288;28;20502;-41
2020/12/22 13:23:31;;;;;;;1.95;1.20;;;19.60;74.60;;;;;;5069275;28;22255;-45
2020/12/22 13:25:57;;;;;;;9.65;1.17;;;19.60;74.50;;;;;;5084023;28;20040;-43
2020/12/22 13:28:23;;;;;;;1.17;0.80;;;19.60;74.20;;;;;;5068652;28;20063;-42
2020/12/22 13:30:48;;;;;;;5.50;0.90;;;19.60;74.10;;;;;;5068273;28;20500;-42
2020/12/22 13:33:14;;;;;;;1.73;1.10;;;19.70;74.10;;;;;;5065100;28;20043;-40
2020/12/22 13:35:40;;;;;;;0.93;0.73;;;19.70;74.10;;;;;;5064962;28;20412;-40
2020/12/22 13:38:05;;;;;;;2.10;1.02;;;19.70;73.90;;;;;;5069048;28;20082;-41
2020/12/22 13:40:32;;;;;;;2.78;0.90;;;19.70;73.90;;;;;;5067645;28;20048;-40
2020/12/22 13:42:58;;;;;;;2.65;0.88;;;19.80;73.80;;;;;;5066993;28;20040;-41
2020/12/22 13:45:24;;;;;;;1.75;1.10;;;19.80;73.50;;;;;;5066514;28;20086;-40
2020/12/22 13:47:50;;;;;;;1.80;1.00;;;19.80;73.50;;;;;;5081458;28;20045;-42
2020/12/22 13:50:15;;;;;;;1.80;0.90;;;19.80;73.40;;;;;;5067882;28;20048;-46
2020/12/22 13:52:41;;;;;;;4.95;1.25;;;19.80;73.30;;;;;;5068984;28;20586;-47
2020/12/22 13:55:06;;;;;;;1.10;1.00;;;19.80;73.20;;;;;;5067858;28;20055;-46
2020/12/22 13:57:32;;;;;;;3.50;0.88;;;19.80;73.20;;;;;;5067440;28;20041;-41
2020/12/22 13:59:57;;;;;;;1.63;0.75;;;19.90;73.20;;;;;;5064126;28;20040;-43
2020/12/22 14:02:23;;;;;;;1.17;1.00;;;19.90;73.40;;;;;;5067062;28;20124;-41
2020/12/22 14:04:49;;;;;;;2.03;0.80;;;19.90;73.20;;;;;;5069044;28;20052;-41
2020/12/22 14:07:14;;;;;;;2.78;1.10;;;19.90;73.00;;;;;;5067266;28;20048;-41
2020/12/22 14:09:40;;;;;;;3.38;0.75;;;19.90;73.00;;;;;;5065328;28;20552;-40
2020/12/22 14:12:07;;;;;;;5.78;0.93;;;19.90;73.00;;;;;;5067094;28;20512;-40
2020/12/22 14:14:32;;;;;;;5.00;1.35;;;19.90;72.90;;;;;;5068021;28;20054;-44
2020/12/22 14:16:58;;;;;;;1.83;0.70;;;19.90;72.70;;;;;;5066245;28;20423;-41
2020/12/22 14:19:24;;;;;;;1.83;0.90;;;20.00;72.80;;;;;;5085494;28;20024;-39
2020/12/22 14:21:49;;;;;;;3.88;0.77;;;19.90;72.70;;;;;;5066147;28;20416;-39
2020/12/22 14:24:15;;;;;;;4.05;0.77;;;19.90;72.70;;;;;;5066630;28;20518;-40
2020/12/22 14:26:40;;;;;;;3.72;0.90;;;19.90;72.60;;;;;;5069436;28;20404;-39
2020/12/22 14:29:06;;;;;;;4.05;0.90;;;19.90;72.60;;;;;;5069583;28;20036;-39
2020/12/22 14:31:35;;;;;;;2.10;1.00;;;19.90;72.70;;;;;;5070480;28;20036;-54
2020/12/22 14:34:00;;;;;;;6.53;1.00;;;19.90;72.60;;;;;;5065843;28;20101;-46
2020/12/22 14:36:26;;;;;;;3.65;0.63;;;20.00;72.90;;;;;;5063893;28;20400;-41
2020/12/22 14:38:51;;;;;;;1.25;0.68;;;19.90;72.70;;;;;;5067336;28;20043;-48
2020/12/22 14:41:17;;;;;;;1.45;1.08;;;19.80;72.80;;;;;;5064621;28;20039;-41
2020/12/22 14:43:43;;;;;;;4.40;1.00;;;19.90;72.90;;;;;;5068481;28;20032;-41
2020/12/22 14:46:13;;;;;;;1.00;1.00;;;19.90;72.90;;;;;;5069976;28;20117;-39
2020/12/22 14:48:38;;;;;;;1.13;0.57;;;19.90;73.00;;;;;;5066127;28;20044;-39
2020/12/22 14:51:04;;;;;;;1.83;0.88;;;19.80;73.20;;;;;;5060479;28;20025;-43
2020/12/22 14:53:30;;;;;;;2.25;0.90;;;19.80;73.20;;;;;;5068363;28;20032;-41
2020/12/22 14:55:55;;;;;;;2.72;0.90;;;19.80;73.20;;;;;;5062237;28;20381;-43
2020/12/22 14:58:21;;;;;;;1.38;0.57;;;19.80;73.20;;;;;;5068022;28;20040;-44
2020/12/22 15:00:48;;;;;;;0.70;0.70;;;19.90;73.30;;;;;;5069186;28;20033;-42
2020/12/22 15:03:14;;;;;;;1.60;0.80;;;19.80;73.30;;;;;;5069160;28;20154;-42
2020/12/22 15:05:39;;;;;;;0.60;0.60;;;19.90;73.30;;;;;;5081059;28;20116;-41
2020/12/22 15:08:05;;;;;;;0.95;0.65;;;19.80;73.20;;;;;;5067655;28;20041;-41
2020/12/22 15:10:30;;;;;;;0.60;0.60;;;19.80;73.20;;;;;;5070347;28;20508;-42
2020/12/22 15:12:56;;;;;;;1.02;0.70;;;19.90;73.30;;;;;;5068724;28;20024;-39
2020/12/22 15:15:22;;;;;;;1.50;0.50;;;19.90;73.40;;;;;;5067029;28;20422;-41
2020/12/22 15:17:47;;;;;;;1.33;0.65;;;19.80;73.20;;;;;;5067244;28;20029;-44
2020/12/22 15:20:13;;;;;;;1.48;0.60;;;19.80;73.20;;;;;;5079443;28;20502;-42
2020/12/22 15:22:39;;;;;;;1.05;0.80;;;19.80;73.10;;;;;;5070331;28;20020;-42
2020/12/22 15:25:05;;;;;;;2.78;0.47;;;19.90;73.90;;;;;;5068836;28;20496;-39
2020/12/22 15:27:32;;;;;;;1.33;0.50;;;19.80;73.20;;;;;;5068133;28;20107;-39
2020/12/22 15:29:58;;;;;;;0.90;0.60;;;19.80;73.10;;;;;;5066948;28;20044;-41
2020/12/22 15:32:24;;;;;;;2.25;0.57;;;19.80;73.60;;;;;;5067619;28;20070;-38
2020/12/22 15:34:49;;;;;;;1.67;0.40;;;19.90;73.10;;;;;;5068473;28;20028;-41
2020/12/22 15:37:15;;;;;;;1.33;0.68;;;19.90;72.90;;;;;;4710274;28;10000039;-43
2020/12/22 15:39:41;;;;;;;3.30;0.82;;;19.90;72.80;;;;;;5062541;28;20032;-41
2020/12/22 15:42:07;;;;;;;0.70;0.43;;;19.90;72.60;;;;;;5063673;28;20434;-40
2020/12/22 15:44:33;;;;;;;2.03;0.52;;;19.80;72.60;;;;;;5064228;28;20029;-40
2020/12/22 15:46:59;;;;;;;1.83;0.50;;;19.80;72.70;;;;;;5066214;28;20036;-41
2020/12/22 15:49:24;;;;;;;0.63;0.40;;;19.80;72.80;;;;;;5062810;28;20535;-44
2020/12/22 15:51:50;;;;;;;4.50;0.50;;;19.80;72.70;;;;;;5060316;28;20028;-43
2020/12/22 15:54:19;;;;;;;1.23;0.60;;;19.80;72.80;;;;;;5063557;28;20024;-40
2020/12/22 15:56:44;;;;;;;0.68;0.57;;;19.80;73.20;;;;;;5063168;28;20057;-40
2020/12/22 15:59:10;;;;;;;0.85;0.50;;;19.80;73.60;;;;;;5064362;28;20075;-43
2020/12/22 16:01:37;;;;;;;0.77;0.50;;;19.80;72.80;;;;;;5060143;28;20543;-44
2020/12/22 16:04:03;;;;;;;3.58;0.60;;;19.80;72.80;;;;;;5058856;28;20048;-41
2020/12/22 16:06:35;;;;;;;2.60;0.68;;;19.80;72.80;;;;;;5061632;28;20527;-40
2020/12/22 16:09:01;;;;;;;6.20;0.60;;;19.90;72.60;;;;;;5054223;28;20048;-41
2020/12/22 16:11:26;;;;;;;0.75;0.30;;;19.90;72.60;;;;;;5066558;28;20033;-43
2020/12/22 16:13:52;;;;;;;0.57;0.40;;;19.90;72.70;;;;;;5065712;28;20102;-47
2020/12/22 16:16:19;;;;;;;14.65;1.10;;;19.90;72.60;;;;;;5066152;28;20816;-45
2020/12/22 16:18:45;;;;;;;0.50;0.43;;;19.90;72.60;;;;;;5064542;28;20139;-42
2020/12/22 16:21:10;;;;;;;0.85;0.50;;;19.90;72.60;;;;;;5064265;28;20147;-44
2020/12/22 16:23:36;;;;;;;1.58;0.40;;;19.90;72.60;;;;;;5063160;28;20111;-43
2020/12/22 16:26:06;;;;;;;2.38;0.50;;;19.90;72.60;;;;;;5066814;28;20390;-43
2020/12/22 16:28:32;;;;;;;2.97;0.68;;;19.90;72.60;;;;;;5083476;28;20040;-48
2020/12/22 16:30:58;;;;;;;0.63;0.35;;;19.90;72.60;;;;;;5066108;28;20076;-43
2020/12/22 16:33:24;;;;;;;3.00;0.68;;;19.90;72.60;;;;;;5067338;28;20519;-45
2020/12/22 16:35:54;;;;;;;0.40;0.40;;;19.90;72.60;;;;;;5064385;28;20170;-47
2020/12/22 16:38:20;;;;;;;3.53;0.60;;;19.90;72.60;;;;;;5078643;28;20072;-50
2020/12/22 16:40:46;;;;;;;1.17;0.40;;;19.90;72.60;;;;;;5066889;28;20143;-44
2020/12/22 16:43:12;;;;;;;0.70;0.32;;;19.90;72.50;;;;;;5064108;28;20099;-44
2020/12/22 16:45:37;;;;;;;4.47;0.70;;;19.90;72.50;;;;;;5061095;28;20528;-44
2020/12/22 16:48:03;;;;;;;2.15;0.50;;;19.90;72.60;;;;;;5049914;28;20060;-50
2020/12/22 16:50:29;;;;;;;0.82;0.68;;;19.90;72.50;;;;;;5053705;28;20032;-42
2020/12/22 16:52:54;;;;;;;0.77;0.43;;;19.90;72.50;;;;;;5063535;28;20109;-56
2020/12/22 16:55:20;;;;;;;2.08;0.60;;;19.90;72.50;;;;;;5064823;28;20051;-45
2020/12/22 16:57:46;;;;;;;0.40;0.40;;;19.90;72.50;;;;;;5064053;28;20400;-45
2020/12/22 17:00:11;;;;;;;1.30;0.30;;;19.90;72.30;;;;;;5065406;28;20040;-41
2020/12/22 17:02:37;;;;;;;2.15;0.95;;;19.90;72.30;;;;;;5066694;28;20500;-42
2020/12/22 17:05:03;;;;;;;0.63;0.40;;;19.90;73.00;;;;;;5068945;28;20127;-40
2020/12/22 17:07:29;;;;;;;0.30;0.30;;;19.90;72.20;;;;;;5067728;28;20094;-42
2020/12/22 17:09:55;;;;;;;0.30;0.30;;;19.90;72.10;;;;;;5065317;28;20102;-41
2020/12/22 17:12:20;;;;;;;0.47;0.45;;;19.90;72.20;;;;;;5068167;28;20048;-40
2020/12/22 17:14:46;;;;;;;1.55;0.22;;;20.00;72.10;;;;;;5068172;28;20123;-41
2020/12/22 17:17:11;;;;;;;1.60;0.50;;;20.00;72.00;;;;;;5070112;28;20040;-41
2020/12/22 17:19:38;;;;;;;2.15;0.50;;;20.00;71.90;;;;;;5068057;28;20072;-46
2020/12/22 17:22:03;;;;;;;3.13;0.40;;;20.00;71.90;;;;;;5067942;28;20111;-40
2020/12/22 17:24:29;;;;;;;0.85;0.45;;;20.00;71.80;;;;;;5069509;28;20048;-41
2020/12/22 17:26:55;;;;;;;2.00;0.30;;;19.90;71.80;;;;;;5069322;28;20104;-40
2020/12/22 17:29:21;;;;;;;0.47;0.25;;;20.00;71.80;;;;;;5052177;28;20492;-41
2020/12/22 17:31:46;;;;;;;1.95;0.40;;;20.00;71.70;;;;;;5069471;28;20404;-41
2020/12/22 17:34:12;;;;;;;1.10;0.30;;;20.00;72.50;;;;;;5066887;28;20049;-41
2020/12/22 17:36:37;;;;;;;1.35;0.35;;;20.00;71.60;;;;;;5066458;28;20048;-41
2020/12/22 17:39:04;;;;;;;0.52;0.50;;;20.00;71.60;;;;;;5062879;28;20048;-46
2020/12/22 17:41:29;;;;;;;1.35;0.40;;;20.00;71.50;;;;;;5065822;28;21589;-45
2020/12/22 17:43:55;;;;;;;0.30;0.30;;;20.00;71.50;;;;;;5066868;28;20055;-40
2020/12/22 17:46:20;;;;;;;0.55;0.35;;;20.00;72.40;;;;;;5064520;28;20059;-38
2020/12/22 17:48:46;;;;;;;0.57;0.40;;;20.00;71.40;;;;;;5051254;28;20080;-38
2020/12/22 17:51:11;;;;;;;0.30;0.20;;;20.00;71.40;;;;;;5084019;28;20124;-38
2020/12/22 17:53:38;;;;;;;0.47;0.35;;;20.00;71.40;;;;;;5061482;28;20488;-38
2020/12/22 17:56:04;;;;;;;2.92;0.40;;;20.00;71.40;;;;;;5068547;28;20514;-40
2020/12/22 17:58:31;;;;;;;0.32;0.30;;;20.00;71.40;;;;;;4715781;28;10000120;-40
2020/12/22 18:00:56;;;;;;;2.17;0.40;;;20.00;71.40;;;;;;5065044;28;20041;-43
2020/12/22 18:03:22;;;;;;;2.20;0.50;;;20.00;71.30;;;;;;5064741;28;20049;-43
2020/12/22 18:05:47;;;;;;;0.45;0.40;;;19.90;71.20;;;;;;5065122;28;20523;-50
2020/12/22 18:08:13;;;;;;;1.45;0.55;;;19.90;71.30;;;;;;5061926;28;20056;-43
2020/12/22 18:10:41;;;;;;;0.40;0.40;;;19.90;71.20;;;;;;5065966;28;20059;-42
2020/12/22 18:13:07;;;;;;;0.63;0.50;;;19.90;71.30;;;;;;5065536;28;20053;-42
2020/12/22 18:15:33;;;;;;;1.20;0.50;;;19.90;71.50;;;;;;5062289;28;20060;-45
2020/12/22 18:18:00;;;;;;;1.60;0.70;;;19.80;71.60;;;;;;5064433;28;20049;-39
2020/12/22 18:20:26;;;;;;;1.20;0.60;;;19.80;71.70;;;;;;5067742;28;20044;-40
2020/12/22 18:22:51;;;;;;;2.47;0.70;;;19.80;71.70;;;;;;5061510;28;20051;-39
2020/12/22 18:25:17;;;;;;;2.92;0.65;;;19.80;71.80;;;;;;5065519;28;20048;-43
2020/12/22 18:27:43;;;;;;;1.73;0.57;;;19.80;71.70;;;;;;5058790;28;20045;-39
2020/12/22 18:30:09;;;;;;;2.03;1.25;;;19.90;71.80;;;;;;5062249;28;20056;-47
2020/12/22 18:32:34;;;;;;;2.78;0.85;;;19.80;71.70;;;;;;5061360;28;20040;-40
2020/12/22 18:35:00;;;;;;;0.70;0.70;;;19.90;71.70;;;;;;5061289;28;20523;-41
2020/12/22 18:37:26;;;;;;;6.55;0.85;;;19.90;71.70;;;;;;5062034;28;20044;-39
2020/12/22 18:39:52;;;;;;;12.73;0.90;;;19.90;71.90;;;;;;5061674;28;20059;-44
2020/12/22 18:42:18;;;;;;;3.35;0.80;;;19.90;72.00;;;;;;5062699;28;20037;-40
2020/12/22 18:44:43;;;;;;;3.30;0.90;;;19.90;72.20;;;;;;5063940;28;20105;-40